Woodruff, Indiana
Current Conditions -  °F | °C
As of 1:15 AM on Wednesday 22 Oct 2014 (Local Time) from KANQ Reporting Station
NA  
Wind Chill: 37°   Ceiling: NA
Heat Index: 37°   Visibility: NA
Dew Point: 18°   Wind: 3mph
Humidity: 45%   Direction: 20°NNE
Pressure: 30.23"   Gusts: NA
Location:  41.5677°N, 85.3125°W
Report Text: KANQ 220515Z AUTO 02003KT 03/M08 A3023 RMK
Loading
Personal Weather Stations






























Interactive Weather Map
Tropical Storm Tracking
New forecast layout! Learn more

10-Day Weather Forecast

Advertisements
Track Severe Weather on mobile